Time;durP1;ratioP1;P1;durP2;ratioP2;P2;SDS_P1;SDS_P2;PMS_P1;PMS_P2;Temp;Humidity;BMP_temperature;BMP_pressure;BME280_temperature;BME280_humidity;BME280_pressure;Samples;Min_cycle;Max_cycle;Signal;HPM_P1;HPM_P2
2021/09/08 00:02:07;;;;;;;;;;;;;;;9.78;92.67;98927.15;1679533;85;20242;-80
2021/09/08 00:04:33;;;;;;;;;;;;;;;9.70;92.90;98930.30;1679468;85;20222;-80
2021/09/08 00:06:58;;;;;;;;;;;;;;;9.67;93.56;98934.87;1679608;84;20596;-80
2021/09/08 00:09:24;;;;;;;;;;;;;;;9.69;93.40;98937.31;1679390;85;20254;-80
2021/09/08 00:11:50;;;;;;;;;;;;;;;9.68;93.08;98941.09;1679504;85;21087;-80
2021/09/08 00:14:16;;;;;;;;;;;;;;;9.70;93.95;98943.02;1679481;85;20246;-81
2021/09/08 00:16:42;;;;;;;;;;;;;;;9.70;94.39;98938.95;1679380;84;20198;-82
2021/09/08 00:19:08;;;;;;;;;;;;;;;9.71;93.03;98940.58;1659937;85;20562;-82
2021/09/08 00:21:34;;;;;;;;;;;;;;;9.65;94.04;98938.88;1679681;85;20199;-81
2021/09/08 00:24:00;;;;;;;;;;;;;;;9.67;93.05;98941.64;1679209;85;21131;-82
2021/09/08 00:26:25;;;;;;;;;;;;;;;9.70;93.39;98943.02;1679794;85;20191;-82
2021/09/08 00:28:51;;;;;;;;;;;;;;;9.72;94.03;98943.57;1679411;85;20170;-82
2021/09/08 00:31:17;;;;;;;;;;;;;;;9.74;92.95;98947.69;1679600;85;20186;-81
2021/09/08 00:33:43;;;;;;;;;;;;;;;9.73;93.58;98947.91;1679429;85;20287;-80
2021/09/08 00:36:09;;;;;;;;;;;;;;;9.75;92.80;98949.31;1679638;85;20724;-82
2021/09/08 00:38:34;;;;;;;;;;;;;;;9.77;93.41;98943.65;1679364;84;20426;-82
2021/09/08 00:41:00;;;;;;;;;;;;;;;9.79;93.12;98949.08;1679548;85;20186;-80
2021/09/08 00:43:26;;;;;;;;;;;;;;;9.75;91.88;98942.55;1679347;84;20163;-81
2021/09/08 00:45:54;;;;;;;;;;;;;;;9.71;91.34;98937.34;1659959;85;20170;-80
2021/09/08 00:48:20;;;;;;;;;;;;;;;9.65;91.10;98945.10;1678901;85;21061;-82
2021/09/08 00:50:46;;;;;;;;;;;;;;;9.53;91.36;98941.17;1679575;85;20460;-82
2021/09/08 00:53:12;;;;;;;;;;;;;;;9.45;92.07;98940.25;1679382;84;20148;-82
2021/09/08 00:55:38;;;;;;;;;;;;;;;9.40;92.21;98944.26;1679689;85;20161;-81
2021/09/08 00:58:04;;;;;;;;;;;;;;;9.42;92.10;98946.17;1679919;85;20287;-82
2021/09/08 01:00:30;;;;;;;;;;;;;;;9.37;92.40;98944.73;1682011;85;21065;-80
2021/09/08 01:02:55;;;;;;;;;;;;;;;9.35;92.41;98944.17;1683708;85;20184;-80
2021/09/08 01:05:23;;;;;;;;;;;;;;;9.31;93.06;98948.43;1683738;85;20232;-82
2021/09/08 01:07:49;;;;;;;;;;;;;;;9.28;93.36;98952.99;1683723;85;20138;-82
2021/09/08 01:10:14;;;;;;;;;;;;;;;9.22;93.94;98952.09;1683736;84;20168;-81
2021/09/08 01:12:40;;;;;;;;;;;;;;;9.25;92.98;98954.32;1683813;84;21094;-81
2021/09/08 01:15:06;;;;;;;;;;;;;;;9.23;94.35;98944.83;1683659;84;20224;-80
2021/09/08 01:17:32;;;;;;;;;;;;;;;9.23;95.66;98951.05;1683559;84;20426;-82
2021/09/08 01:19:58;;;;;;;;;;;;;;;9.24;95.60;98954.03;1683652;84;20522;-82
2021/09/08 01:22:27;;;;;;;;;;;;;;;9.26;95.46;98949.73;1683766;84;20267;-81
2021/09/08 01:24:53;;;;;;;;;;;;;;;9.28;96.07;98952.99;1683674;84;21086;-82
2021/09/08 01:27:19;;;;;;;;;;;;;;;9.29;95.78;98949.22;1683756;85;20208;-80
2021/09/08 01:29:45;;;;;;;;;;;;;;;9.28;95.40;98949.75;1683893;85;20195;-81
2021/09/08 01:32:10;;;;;;;;;;;;;;;9.29;94.44;98943.81;1683782;84;20681;-82
2021/09/08 01:34:36;;;;;;;;;;;;;;;9.26;94.03;98950.55;1683656;85;20168;-82
2021/09/08 01:37:02;;;;;;;;;;;;;;;9.23;93.71;98951.05;1683839;84;21095;-81
2021/09/08 01:39:28;;;;;;;;;;;;;;;9.19;93.37;98945.02;1683407;85;20213;-81
2021/09/08 01:41:54;;;;;;;;;;;;;;;9.15;93.47;98947.95;1684447;85;20465;-81
2021/09/08 01:44:21;;;;;;;;;;;;;;;9.13;92.99;98940.59;1683523;85;20172;-80
2021/09/08 01:46:48;;;;;;;;;;;;;;;9.13;92.89;98940.59;1683962;85;20134;-82
2021/09/08 01:49:14;;;;;;;;;;;;;;;9.10;93.01;98941.92;1673614;85;21097;-80
2021/09/08 01:51:39;;;;;;;;;;;;;;;9.06;93.44;98940.79;1683885;84;20252;-82
2021/09/08 01:54:05;;;;;;;;;;;;;;;9.03;93.76;98936.67;1683494;85;20728;-82
2021/09/08 01:56:31;;;;;;;;;;;;;;;9.01;94.69;98934.76;1683811;84;20220;-80
2021/09/08 01:58:57;;;;;;;;;;;;;;;9.05;94.51;98939.13;1683592;84;20157;-82
2021/09/08 02:01:25;;;;;;;;;;;;;;;9.07;94.33;98937.55;1680364;85;21037;-81
2021/09/08 02:03:50;;;;;;;;;;;;;;;9.07;94.77;98942.95;1679374;84;20409;-80
2021/09/08 02:06:24;;;;;;;;;;;;;;;9.03;95.10;98938.56;1679639;84;20185;-81
2021/09/08 02:08:53;;;;;;;;;;;;;;;9.05;95.08;98942.64;1679844;84;20126;-82
2021/09/08 02:11:19;;;;;;;;;;;;;;;9.03;94.98;98940.73;1679335;84;20142;-82
2021/09/08 02:13:44;;;;;;;;;;;;;;;9.03;94.30;98940.73;1679381;84;21148;-82
2021/09/08 02:16:11;;;;;;;;;;;;;;;8.96;94.45;98939.25;1679932;84;20226;-81
2021/09/08 02:18:37;;;;;;;;;;;;;;;8.96;93.97;98939.25;1679548;84;20406;-82
2021/09/08 02:21:03;;;;;;;;;;;;;;;8.95;93.71;98935.73;1679736;84;20658;-80
2021/09/08 02:23:29;;;;;;;;;;;;;;;8.93;93.34;98933.81;1679464;85;20291;-81
2021/09/08 02:25:54;;;;;;;;;;;;;;;8.90;92.96;98932.16;1680186;84;21157;-82
2021/09/08 02:28:20;;;;;;;;;;;;;;;8.86;93.52;98934.52;1669419;85;20216;-81
2021/09/08 02:30:47;;;;;;;;;;;;;;;8.82;93.73;98933.38;1679737;84;20155;-81
2021/09/08 02:33:17;;;;;;;;;;;;;;;8.82;93.38;98924.45;1669554;85;20459;-81
2021/09/08 02:35:43;;;;;;;;;;;;;;;8.83;93.81;98932.31;1669669;85;20146;-80
2021/09/08 02:38:09;;;;;;;;;;;;;;;8.84;94.28;98930.42;1679629;84;21085;-81
2021/09/08 02:40:35;;;;;;;;;;;;;;;8.84;95.01;98935.30;1669883;85;20181;-81
2021/09/08 02:43:01;;;;;;;;;;;;;;;8.85;95.49;98928.01;1679534;84;20225;-82
2021/09/08 02:45:26;;;;;;;;;;;;;;;8.90;95.35;98934.86;1679485;84;20184;-82
2021/09/08 02:47:52;;;;;;;;;;;;;;;8.90;95.04;98931.63;1679675;84;20208;-80
2021/09/08 02:50:18;;;;;;;;;;;;;;;8.84;95.38;98929.89;1679345;84;21755;-82
2021/09/08 02:52:44;;;;;;;;;;;;;;;8.83;95.43;98923.39;1679474;84;20189;-82
2021/09/08 02:55:10;;;;;;;;;;;;;;;8.82;95.62;98917.16;1679834;84;20184;-80
2021/09/08 02:57:35;;;;;;;;;;;;;;;8.86;95.84;98925.59;1680206;84;20154;-82
2021/09/08 03:00:01;;;;;;;;;;;;;;;8.85;95.57;98923.95;1680130;84;20145;-80
2021/09/08 03:02:27;;;;;;;;;;;;;;;8.79;94.92;98919.52;1684253;85;21180;-82
2021/09/08 03:04:52;;;;;;;;;;;;;;;8.74;94.55;98923.80;1683546;84;20172;-81
2021/09/08 03:07:18;;;;;;;;;;;;;;;8.73;94.11;98924.86;1683906;85;20279;-80
2021/09/08 03:09:44;;;;;;;;;;;;;;;8.69;94.69;98921.00;1683432;85;20430;-81
2021/09/08 03:12:10;;;;;;;;;;;;;;;8.71;94.14;98926.97;1683731;85;20181;-82
2021/09/08 03:14:35;;;;;;;;;;;;;;;8.64;94.73;98923.64;1683620;84;21646;-81
2021/09/08 03:17:01;;;;;;;;;;;;;;;8.59;95.31;98927.59;1683493;85;20744;-81
2021/09/08 03:19:27;;;;;;;;;;;;;;;8.60;94.58;98918.42;1683579;85;20247;-81
2021/09/08 03:21:53;;;;;;;;;;;;;;;8.56;94.44;98924.04;1683741;85;20260;-81
2021/09/08 03:24:18;;;;;;;;;;;;;;;8.49;94.28;98924.72;1683530;84;20292;-82
2021/09/08 03:26:44;;;;;;;;;;;;;;;8.46;93.80;98927.92;1683821;85;21240;-81
2021/09/08 03:29:10;;;;;;;;;;;;;;;8.42;94.10;98926.22;1683422;85;20168;-82
2021/09/08 03:31:36;;;;;;;;;;;;;;;8.38;94.39;98929.14;1683797;84;20232;-82
2021/09/08 03:34:01;;;;;;;;;;;;;;;8.31;94.74;98923.56;1683629;84;20180;-80
2021/09/08 03:36:27;;;;;;;;;;;;;;;8.28;94.89;98922.15;1684373;84;20165;-81
2021/09/08 03:38:53;;;;;;;;;;;;;;;8.25;94.50;98919.13;1683627;85;21075;-82
2021/09/08 03:41:19;;;;;;;;;;;;;;;8.25;94.80;98919.95;1674049;85;20220;-80
2021/09/08 03:43:45;;;;;;;;;;;;;;;8.27;94.75;98921.05;1683597;84;20227;-80
2021/09/08 03:46:10;;;;;;;;;;;;;;;8.27;95.10;98924.56;1683816;84;20716;-81
2021/09/08 03:48:36;;;;;;;;;;;;;;;8.32;94.79;98921.97;1683752;84;20173;-80
2021/09/08 03:51:02;;;;;;;;;;;;;;;8.35;94.66;98920.69;1683764;84;21109;-82
2021/09/08 03:53:28;;;;;;;;;;;;;;;8.35;94.56;98922.85;1684035;85;20160;-82
2021/09/08 03:55:53;;;;;;;;;;;;;;;8.33;94.37;98925.48;1683744;85;20228;-81
2021/09/08 03:58:19;;;;;;;;;;;;;;;8.31;94.48;98924.38;1683723;84;20160;-80
2021/09/08 04:00:45;;;;;;;;;;;;;;;8.35;94.67;98928.78;1683553;84;20252;-82
2021/09/08 04:03:11;;;;;;;;;;;;;;;8.38;93.61;98931.02;1673865;85;20716;-80
2021/09/08 04:05:36;;;;;;;;;;;;;;;8.34;94.52;98928.47;1683528;84;20792;-82
2021/09/08 04:08:02;;;;;;;;;;;;;;;8.38;93.91;98931.84;1683763;85;20231;-82
2021/09/08 04:10:28;;;;;;;;;;;;;;;8.35;93.22;98932.30;1683436;85;20181;-80
2021/09/08 04:12:54;;;;;;;;;;;;;;;8.29;93.07;98937.31;1683788;85;20224;-80
2021/09/08 04:15:20;;;;;;;;;;;;;;;8.26;93.28;98928.86;1683391;85;21711;-82
2021/09/08 04:17:46;;;;;;;;;;;;;;;8.23;93.33;98940.16;1683665;84;20195;-82
2021/09/08 04:20:13;;;;;;;;;;;;;;;8.20;93.91;98939.59;1683348;85;20205;-81
2021/09/08 04:22:40;;;;;;;;;;;;;;;8.20;94.28;98944.14;1683670;85;20142;-82
2021/09/08 04:25:07;;;;;;;;;;;;;;;8.22;94.39;98942.57;1673593;85;20142;-81
2021/09/08 04:27:34;;;;;;;;;;;;;;;8.23;94.09;98945.03;1683799;85;20951;-82
2021/09/08 04:30:01;;;;;;;;;;;;;;;8.23;94.05;98946.38;1683365;85;20131;-82
2021/09/08 04:32:27;;;;;;;;;;;;;;;8.22;94.18;98942.57;1683744;85;20154;-82
2021/09/08 04:34:54;;;;;;;;;;;;;;;8.23;93.96;98946.38;1683379;84;20405;-80
2021/09/08 04:37:21;;;;;;;;;;;;;;;8.24;93.82;98948.55;1683825;85;20189;-80
2021/09/08 04:39:47;;;;;;;;;;;;;;;8.29;93.56;98944.56;1684098;85;20926;-80
2021/09/08 04:42:14;;;;;;;;;;;;;;;8.32;93.38;98948.97;1683812;84;20477;-80
2021/09/08 04:44:42;;;;;;;;;;;;;;;8.31;93.51;98947.87;1683865;85;20143;-80
2021/09/08 04:47:08;;;;;;;;;;;;;;;8.36;93.33;98948.80;1683844;85;20445;-81
2021/09/08 04:49:35;;;;;;;;;;;;;;;8.40;93.54;98946.45;1683712;84;20205;-81
2021/09/08 04:52:02;;;;;;;;;;;;;;;8.44;93.72;98946.23;1683822;84;21597;-80
2021/09/08 04:54:29;;;;;;;;;;;;;;;8.52;93.54;98943.67;1683597;85;20231;-80
2021/09/08 04:56:56;;;;;;;;;;;;;;;8.56;94.09;98946.19;1683863;85;20579;-80
2021/09/08 04:59:22;;;;;;;;;;;;;;;8.64;92.88;98951.19;1683778;84;20167;-82
2021/09/08 05:01:49;;;;;;;;;;;;;;;8.66;93.34;98946.35;1680914;84;20150;-80
2021/09/08 05:04:16;;;;;;;;;;;;;;;8.72;93.13;98945.38;1679671;84;20971;-80
2021/09/08 05:06:43;;;;;;;;;;;;;;;8.75;92.92;98947.58;1679632;84;20197;-80
2021/09/08 05:09:09;;;;;;;;;;;;;;;8.79;92.95;98943.84;1679678;84;20178;-80
2021/09/08 05:11:36;;;;;;;;;;;;;;;8.82;93.06;98950.13;1679730;84;20563;-80
2021/09/08 05:14:03;;;;;;;;;;;;;;;8.92;92.93;98945.70;1669634;85;20167;-82
2021/09/08 05:16:30;;;;;;;;;;;;;;;9.01;92.92;98946.11;1679674;84;21669;-81
2021/09/08 05:18:57;;;;;;;;;;;;;;;9.07;92.75;98942.95;1679516;84;20135;-81
2021/09/08 05:21:24;;;;;;;;;;;;;;;9.09;93.08;98947.58;1679740;85;20218;-81
2021/09/08 05:23:51;;;;;;;;;;;;;;;9.19;92.51;98948.54;1679539;84;20159;-82
2021/09/08 05:26:18;;;;;;;;;;;;;;;9.23;93.33;98948.87;1669774;85;20193;-81
2021/09/08 05:28:44;;;;;;;;;;;;;;;9.34;92.61;98950.66;1679623;84;21102;-81
2021/09/08 05:31:11;;;;;;;;;;;;;;;9.43;92.92;98946.98;1679354;84;20218;-80
2021/09/08 05:33:38;;;;;;;;;;;;;;;9.55;92.99;98947.69;1679635;84;20142;-80
2021/09/08 05:36:05;;;;;;;;;;;;;;;9.76;92.73;98942.83;1679748;84;20646;-82
2021/09/08 05:38:31;;;;;;;;;;;;;;;10.08;92.41;98947.52;1679572;84;20162;-80
2021/09/08 05:40:58;;;;;;;;;;;;;;;10.37;92.04;98942.72;1679691;84;20953;-81
2021/09/08 05:43:25;;;;;;;;;;;;;;;10.66;90.15;98942.72;1679474;84;20177;-82
2021/09/08 05:45:52;;;;;;;;;;;;;;;10.85;89.12;98952.66;1679644;84;20336;-82
2021/09/08 05:48:18;;;;;;;;;;;;;;;10.90;89.08;98954.04;1679794;84;20397;-82
2021/09/08 05:50:45;;;;;;;;;;;;;;;10.92;89.01;98951.06;1679704;84;20210;-82
2021/09/08 05:53:12;;;;;;;;;;;;;;;10.93;89.32;98954.87;1679591;84;20635;-82
2021/09/08 05:55:39;;;;;;;;;;;;;;;10.89;89.74;98952.95;1679274;84;20169;-80
2021/09/08 05:58:08;;;;;;;;;;;;;;;10.98;90.07;98951.39;1679630;84;20468;-82
2021/09/08 06:00:35;;;;;;;;;;;;;;;11.11;90.09;98950.11;1679320;84;20437;-81
2021/09/08 06:03:02;;;;;;;;;;;;;;;11.20;90.39;98950.75;1680180;84;20139;-80
2021/09/08 06:05:29;;;;;;;;;;;;;;;11.31;90.11;98947.56;1679431;84;20971;-82
2021/09/08 06:07:55;;;;;;;;;;;;;;;11.41;89.95;98948.16;1679631;85;20225;-82
2021/09/08 06:10:22;;;;;;;;;;;;;;;11.53;89.77;98949.57;1679669;84;20135;-81
2021/09/08 06:12:49;;;;;;;;;;;;;;;11.71;89.73;98946.98;1679702;84;20377;-80
2021/09/08 06:15:16;;;;;;;;;;;;;;;12.04;89.47;98947.66;1679451;84;20206;-81
2021/09/08 06:17:43;;;;;;;;;;;;;;;12.43;88.32;98949.41;1679653;84;20509;-81
2021/09/08 06:20:10;;;;;;;;;;;;;;;12.82;87.35;98947.53;1679488;84;20182;-82
2021/09/08 06:22:36;;;;;;;;;;;;;;;13.20;87.17;98944.29;1679745;85;20163;-81
2021/09/08 06:25:04;;;;;;;;;;;;;;;13.36;84.11;98940.19;1679438;85;20446;-82
2021/09/08 06:27:31;;;;;;;;;;;;;;;13.45;84.60;98938.53;1679708;84;20446;-81
2021/09/08 06:29:57;;;;;;;;;;;;;;;13.50;84.42;98939.34;1679396;85;21010;-80
2021/09/08 06:32:24;;;;;;;;;;;;;;;13.80;84.46;98941.14;1679615;84;20170;-83
2021/09/08 06:34:51;;;;;;;;;;;;;;;14.05;84.87;98935.31;1679344;84;20435;-81
2021/09/08 06:37:18;;;;;;;;;;;;;;;14.14;84.72;98934.19;1680060;84;20155;-83
2021/09/08 06:39:44;;;;;;;;;;;;;;;14.23;84.93;98931.95;1669793;85;20142;-83
2021/09/08 06:42:11;;;;;;;;;;;;;;;14.49;85.31;98932.63;1679579;84;21670;-81
2021/09/08 06:44:38;;;;;;;;;;;;;;;14.91;83.98;98929.87;1679717;84;20163;-81
2021/09/08 06:47:05;;;;;;;;;;;;;;;15.32;81.33;98933.59;1669655;85;20857;-80
2021/09/08 06:49:32;;;;;;;;;;;;;;;15.68;80.24;98932.13;1679394;84;20433;-81
2021/09/08 06:51:58;;;;;;;;;;;;;;;16.21;79.74;98929.83;1679619;84;20391;-81
2021/09/08 06:54:25;;;;;;;;;;;;;;;16.52;77.04;98935.13;1679389;84;21003;-81
2021/09/08 06:56:52;;;;;;;;;;;;;;;16.98;76.11;98937.17;1679482;84;20135;-83
2021/09/08 06:59:18;;;;;;;;;;;;;;;17.54;78.02;98934.00;1679805;84;20171;-84
2021/09/08 07:01:45;;;;;;;;;;;;;;;18.01;77.17;98945.14;1679434;84;20382;-84
2021/09/08 07:04:12;;;;;;;;;;;;;;;18.19;71.95;98930.48;1679258;85;20437;-84
2021/09/08 07:06:39;;;;;;;;;;;;;;;18.67;71.48;98925.87;1679630;84;20887;-82
2021/09/08 07:09:06;;;;;;;;;;;;;;;19.14;70.36;98922.23;1679415;84;20166;-82
2021/09/08 07:11:32;;;;;;;;;;;;;;;19.68;71.93;98919.72;1679598;84;20592;-84
2021/09/08 07:13:59;;;;;;;;;;;;;;;20.09;67.44;98925.44;1679450;85;20445;-84
2021/09/08 07:16:26;;;;;;;;;;;;;;;20.53;63.40;98923.58;1679340;84;20185;-84
2021/09/08 07:18:53;;;;;;;;;;;;;;;21.13;68.86;98913.89;1679745;84;21083;-84
2021/09/08 07:21:20;;;;;;;;;;;;;;;21.42;63.29;98922.02;1679224;84;20414;-83
2021/09/08 07:23:46;;;;;;;;;;;;;;;21.86;61.37;98922.65;1679470;84;20154;-82
2021/09/08 07:26:13;;;;;;;;;;;;;;;22.24;60.98;98918.50;1679347;84;20167;-82
2021/09/08 07:28:40;;;;;;;;;;;;;;;22.57;57.07;98915.83;1679579;84;20146;-82
2021/09/08 07:31:07;;;;;;;;;;;;;;;23.13;61.14;98911.36;1679334;85;21696;-82
2021/09/08 07:33:33;;;;;;;;;;;;;;;23.81;64.14;98911.73;1679944;84;20216;-85
2021/09/08 07:36:00;;;;;;;;;;;;;;;23.92;60.96;98912.88;1669379;85;20147;-82
2021/09/08 07:38:27;;;;;;;;;;;;;;;23.73;59.40;98906.53;1679504;84;20257;-82
2021/09/08 07:40:55;;;;;;;;;;;;;;;23.83;56.33;98903.30;1679632;85;20217;-84
2021/09/08 07:43:22;;;;;;;;;;;;;;;24.20;58.85;98912.98;1679585;84;20971;-84
2021/09/08 07:45:49;;;;;;;;;;;;;;;24.60;52.26;98906.09;1679352;84;20194;-84
2021/09/08 07:48:15;;;;;;;;;;;;;;;24.37;52.79;98909.18;1669535;85;20213;-85
2021/09/08 07:50:43;;;;;;;;;;;;;;;24.58;54.40;98909.00;1679575;84;20138;-85
2021/09/08 07:53:10;;;;;;;;;;;;;;;24.92;50.94;98904.25;1679621;84;20378;-82
2021/09/08 07:55:37;;;;;;;;;;;;;;;24.82;49.81;98911.69;1679612;84;21091;-85
2021/09/08 07:58:04;;;;;;;;;;;;;;;25.06;51.20;98904.47;1669590;85;21197;-82
2021/09/08 08:00:33;;;;;;;;;;;;;;;25.42;51.17;98905.63;1679220;85;20470;-85
2021/09/08 08:02:59;;;;;;;;;;;;;;;25.98;51.03;98902.70;1679270;84;20624;-85
2021/09/08 08:05:26;;;;;;;;;;;;;;;26.57;48.96;98904.44;1679236;84;20182;-85
2021/09/08 08:07:53;;;;;;;;;;;;;;;26.52;47.77;98903.35;1669587;85;21669;-85
2021/09/08 08:10:20;;;;;;;;;;;;;;;27.23;48.80;98894.27;1679115;84;20138;-85
2021/09/08 08:12:46;;;;;;;;;;;;;;;27.76;47.35;98897.20;1679667;84;20162;-85
2021/09/08 08:15:14;;;;;;;;;;;;;;;27.54;44.39;98891.84;1679386;84;20415;-82
2021/09/08 08:17:41;;;;;;;;;;;;;;;28.17;43.57;98894.06;1669410;85;20409;-86
2021/09/08 08:20:09;;;;;;;;;;;;;;;28.02;41.84;98890.25;1679317;84;21655;-82
2021/09/08 08:22:37;;;;;;;;;;;;;;;28.17;43.52;98896.84;1679924;84;20134;-82
2021/09/08 08:25:04;;;;;;;;;;;;;;;29.36;44.02;98894.38;1679317;85;20438;-83
2021/09/08 08:27:31;;;;;;;;;;;;;;;29.16;41.51;98897.98;1679566;85;20142;-86
2021/09/08 08:29:58;;;;;;;;;;;;;;;29.97;43.17;98895.13;1679415;85;20098;-86
2021/09/08 08:32:25;;;;;;;;;;;;;;;30.09;40.07;98890.47;1679543;84;21003;-83
2021/09/08 08:34:52;;;;;;;;;;;;;;;30.57;38.59;98889.14;1679393;84;20146;-85
2021/09/08 08:37:18;;;;;;;;;;;;;;;30.71;39.50;98890.44;1679514;84;20422;-83
2021/09/08 08:39:45;;;;;;;;;;;;;;;30.51;34.75;98889.33;1669453;85;20189;-86
2021/09/08 08:42:21;;;;;;;;;;;;;;;31.09;33.71;98894.55;1679534;85;20142;-86
2021/09/08 08:44:49;;;;;;;;;;;;;;;31.87;36.80;98889.69;1679517;85;21423;-86
2021/09/08 08:47:16;;;;;;;;;;;;;;;32.49;33.26;98887.22;1679426;85;20476;-86
2021/09/08 08:49:43;;;;;;;;;;;;;;;32.97;33.87;98878.21;1679344;85;20160;-82
2021/09/08 08:52:11;;;;;;;;;;;;;;;32.76;30.68;98875.49;1679507;84;20421;-82
2021/09/08 08:54:37;;;;;;;;;;;;;;;33.86;32.74;98876.21;1679457;84;20179;-83
2021/09/08 08:57:09;;;;;;;;;;;;;;;33.88;29.57;98868.77;1679517;84;20952;-86
2021/09/08 08:59:40;;;;;;;;;;;;;;;34.42;31.21;98874.08;1679407;85;20146;-83
2021/09/08 09:02:27;;;;;;;;;;;;;;;34.81;31.65;98872.81;1679523;84;20148;-83
2021/09/08 09:04:55;;;;;;;;;;;;;;;34.94;30.64;98876.67;1678179;85;20638;-83
2021/09/08 09:07:34;;;;;;;;;;;;;;;34.79;30.15;98869.63;1679472;85;20176;-83
2021/09/08 09:10:04;;;;;;;;;;;;;;;33.82;29.51;98879.64;1659641;85;21677;-86
2021/09/08 09:12:33;;;;;;;;;;;;;;;31.08;33.49;98875.56;1679416;85;20393;-86
2021/09/08 09:15:05;;;;;;;;;;;;;;;29.49;37.45;98872.82;1679292;84;20419;-83
2021/09/08 09:17:33;;;;;;;;;;;;;;;28.71;38.75;98871.91;1679504;85;20152;-82
2021/09/08 09:20:13;;;;;;;;;;;;;;;27.61;41.15;98871.09;1679319;84;20145;-82
2021/09/08 09:22:42;;;;;;;;;;;;;;;26.97;40.88;98871.30;1660030;85;20998;-82
2021/09/08 09:25:11;;;;;;;;;;;;;;;26.05;42.42;98868.14;1679423;85;20152;-82
2021/09/08 09:27:40;;;;;;;;;;;;;;;25.63;43.94;98863.73;1679652;85;20148;-82
2021/09/08 09:30:09;;;;;;;;;;;;;;;25.20;40.29;98862.66;1678770;85;20255;-84
2021/09/08 09:32:40;;;;;;;;;;;;;;;24.81;41.48;98865.74;1680113;85;20446;-86
2021/09/08 09:35:09;;;;;;;;;;;;;;;24.61;42.25;98859.80;1679437;85;20862;-82
2021/09/08 09:37:43;;;;;;;;;;;;;;;24.50;43.90;98858.70;1660001;85;20233;-85
2021/09/08 09:40:10;;;;;;;;;;;;;;;24.28;43.65;98855.86;1678807;85;20434;-82
2021/09/08 09:42:41;;;;;;;;;;;;;;;24.13;42.46;98851.85;1680104;85;20168;-82
2021/09/08 09:45:08;;;;;;;;;;;;;;;24.09;42.62;98853.11;1659756;85;20431;-85
2021/09/08 09:47:40;;;;;;;;;;;;;;;23.98;41.53;98842.30;1660046;85;21164;-82
2021/09/08 09:50:10;;;;;;;;;;;;;;;23.89;41.54;98843.00;1679354;85;20148;-85
2021/09/08 09:52:37;;;;;;;;;;;;;;;23.81;43.56;98838.40;1678993;85;20172;-85
2021/09/08 09:55:07;;;;;;;;;;;;;;;23.66;44.43;98832.98;1679522;85;20148;-82
2021/09/08 09:57:35;;;;;;;;;;;;;;;23.60;44.25;98834.39;1679617;85;20192;-85
2021/09/08 10:00:03;;;;;;;;;;;;;;;23.65;44.80;98825.84;1679408;85;20995;-82
2021/09/08 10:02:30;;;;;;;;;;;;;;;23.56;45.96;98827.31;1680593;84;20140;-82
2021/09/08 10:04:57;;;;;;;;;;;;;;;23.60;45.40;98827.47;1683972;84;20175;-85
2021/09/08 10:07:24;;;;;;;;;;;;;;;23.60;45.54;98823.33;1683543;84;20487;-85
2021/09/08 10:09:59;;;;;;;;;;;;;;;23.62;45.26;98821.02;1683753;85;20170;-82
2021/09/08 10:12:37;;;;;;;;;;;;;;;23.54;46.57;98824.09;1682269;85;20142;-81
2021/09/08 10:15:06;;;;;;;;;;;;;;;23.56;46.50;98822.36;1683585;85;20391;-82
2021/09/08 10:17:36;;;;;;;;;;;;;;;23.56;45.95;98823.16;1683760;85;20146;-82
2021/09/08 10:20:04;;;;;;;;;;;;;;;23.47;46.14;98816.14;1683334;84;20134;-85
2021/09/08 10:22:30;;;;;;;;;;;;;;;23.34;45.12;98810.61;1683907;85;20174;-85
2021/09/08 10:24:58;;;;;;;;;;;;;;;23.36;46.82;98808.30;1683576;85;21608;-85
2021/09/08 10:27:29;;;;;;;;;;;;;;;23.32;44.72;98809.33;1673530;85;20185;-86
2021/09/08 10:29:57;;;;;;;;;;;;;;;23.40;45.01;98800.69;1683678;84;20425;-85
2021/09/08 10:32:24;;;;;;;;;;;;;;;23.46;45.34;98799.31;1673441;85;20503;-81
2021/09/08 10:34:50;;;;;;;;;;;;;;;23.48;45.30;98804.72;1673793;85;20142;-82
2021/09/08 10:37:17;;;;;;;;;;;;;;;23.42;44.46;98799.80;1673686;85;21061;-82
2021/09/08 10:39:45;;;;;;;;;;;;;;;23.40;43.14;98799.30;1683589;84;20224;-86
2021/09/08 10:42:12;;;;;;;;;;;;;;;23.49;44.50;98795.27;1683480;85;20139;-81
2021/09/08 10:44:43;;;;;;;;;;;;;;;23.59;43.93;98800.39;1683934;84;20429;-81
2021/09/08 10:47:10;;;;;;;;;;;;;;;23.58;42.81;98795.15;1682320;84;20141;-85
2021/09/08 10:49:40;;;;;;;;;;;;;;;23.49;43.06;98790.31;1683755;84;20907;-81
2021/09/08 10:52:13;;;;;;;;;;;;;;;23.51;43.04;98795.75;1683740;85;20171;-85
2021/09/08 10:54:59;;;;;;;;;;;;;;;23.54;43.80;98787.33;1684086;85;20241;-85
2021/09/08 10:57:52;;;;;;;;;;;;;;;23.58;43.39;98786.85;1683500;84;20226;-85
2021/09/08 11:00:30;;;;;;;;;;;;;;;23.64;43.28;98784.92;1683572;84;20162;-85
2021/09/08 11:02:56;;;;;;;;;;;;;;;23.55;42.78;98786.98;1682579;84;21153;-85
2021/09/08 11:05:23;;;;;;;;;;;;;;;23.64;43.03;98782.73;1679320;84;20434;-81
2021/09/08 11:07:50;;;;;;;;;;;;;;;23.63;41.09;98781.13;1679555;84;20155;-85
2021/09/08 11:10:30;;;;;;;;;;;;;;;23.73;42.73;98783.99;1679391;84;20167;-81
2021/09/08 11:12:59;;;;;;;;;;;;;;;23.78;41.72;98784.57;1679815;84;20134;-81
2021/09/08 11:15:34;;;;;;;;;;;;;;;23.85;42.42;98783.98;1679336;84;20981;-85
2021/09/08 11:18:03;;;;;;;;;;;;;;;23.79;39.85;98777.88;1679274;84;20126;-86
2021/09/08 11:20:30;;;;;;;;;;;;;;;23.86;41.46;98775.33;1678374;84;20158;-81
2021/09/08 11:23:11;;;;;;;;;;;;;;;23.84;39.12;98772.11;1679596;84;20126;-86
2021/09/08 11:25:43;;;;;;;;;;;;;;;23.80;39.08;98773.95;1679406;85;20146;-81
2021/09/08 11:28:10;;;;;;;;;;;;;;;23.84;39.52;98771.28;1679454;84;20950;-81
2021/09/08 11:30:41;;;;;;;;;;;;;;;24.05;40.26;98771.94;1679247;85;20194;-81
2021/09/08 11:33:09;;;;;;;;;;;;;;;24.12;41.14;98768.58;1679969;85;20147;-81
2021/09/08 11:35:47;;;;;;;;;;;;;;;24.16;40.49;98773.05;1679337;84;20178;-85
2021/09/08 11:38:24;;;;;;;;;;;;;;;24.22;40.12;98770.84;1679256;84;20150;-85
2021/09/08 11:40:55;;;;;;;;;;;;;;;24.16;39.89;98768.09;1679955;84;21127;-81
2021/09/08 11:43:32;;;;;;;;;;;;;;;24.03;37.26;98766.53;1669785;85;20462;-85
2021/09/08 11:46:18;;;;;;;;;;;;;;;24.03;40.80;98754.88;1679577;85;20443;-85
2021/09/08 11:48:45;;;;;;;;;;;;;;;24.02;40.33;98760.19;1679608;84;20423;-85
2021/09/08 11:51:14;;;;;;;;;;;;;;;23.96;40.08;98759.39;1680022;84;20150;-85
2021/09/08 11:53:40;;;;;;;;;;;;;;;23.92;39.60;98750.39;1679573;84;20960;-86
2021/09/08 11:56:14;;;;;;;;;;;;;;;23.87;39.99;98755.38;1679600;84;20159;-81
2021/09/08 11:58:42;;;;;;;;;;;;;;;23.86;40.44;98752.39;1669463;85;20163;-86
2021/09/08 12:01:10;;;;;;;;;;;;;;;23.97;39.44;98754.09;1679557;84;20139;-85
2021/09/08 12:03:44;;;;;;;;;;;;;;;23.93;40.42;98749.84;1681403;84;20429;-81
2021/09/08 12:06:22;;;;;;;;;;;;;;;23.94;40.27;98741.77;1683697;85;20950;-85
2021/09/08 12:08:54;;;;;;;;;;;;;;;23.88;37.85;98743.95;1683814;85;20223;-85
2021/09/08 12:11:42;;;;;;;;;;;;;;;23.90;39.18;98732.53;1683923;84;20166;-85
2021/09/08 12:14:38;;;;;;;;;;;;;;;23.95;37.95;98735.65;1660514;85;20166;-85
2021/09/08 12:17:16;;;;;;;;;;;;;;;23.96;37.76;98730.34;1683729;84;20418;-85
2021/09/08 12:19:45;;;;;;;;;;;;;;;24.03;38.31;98731.35;1683624;84;20956;-85
2021/09/08 12:22:23;;;;;;;;;;;;;;;24.00;39.13;98729.27;1658018;85;20162;-85
2021/09/08 12:24:57;;;;;;;;;;;;;;;23.95;37.57;98727.34;1682457;84;20414;-85
2021/09/08 12:27:36;;;;;;;;;;;;;;;23.92;37.21;98724.09;1683510;84;20597;-81
2021/09/08 12:30:09;;;;;;;;;;;;;;;24.06;39.27;98722.91;1659896;85;20130;-85
2021/09/08 12:32:54;;;;;;;;;;;;;;;24.02;39.00;98721.44;1683442;85;20948;-85
2021/09/08 12:35:36;;;;;;;;;;;;;;;24.05;39.98;98720.73;1683533;85;20141;-81
2021/09/08 12:38:23;;;;;;;;;;;;;;;24.10;38.56;98721.88;1660250;85;20164;-81
2021/09/08 12:41:13;;;;;;;;;;;;;;;24.11;38.81;98718.52;1683681;84;20217;-81
2021/09/08 12:43:43;;;;;;;;;;;;;;;24.16;38.12;98717.67;1683761;84;20138;-85
2021/09/08 12:46:10;;;;;;;;;;;;;;;24.14;36.68;98714.46;1682358;84;21032;-81
2021/09/08 12:48:37;;;;;;;;;;;;;;;24.08;37.61;98710.91;1683695;84;20102;-81
2021/09/08 12:51:04;;;;;;;;;;;;;;;24.12;37.43;98710.45;1683746;85;20209;-85
2021/09/08 12:53:31;;;;;;;;;;;;;;;24.13;36.21;98705.94;1683693;85;20162;-85
2021/09/08 12:55:57;;;;;;;;;;;;;;;24.10;38.00;98698.34;1683910;84;20225;-81